Time;durP1;ratioP1;P1;durP2;ratioP2;P2;SDS_P1;SDS_P2;PMS_P1;PMS_P2;Temp;Humidity;BMP_temperature;BMP_pressure;BME280_temperature;BME280_humidity;BME280_pressure;Samples;Min_cycle;Max_cycle;Signal;HPM_P1;HPM_P2
2023/01/03 00:02:01;;;;;;;;;;;5.10;99.90;;;;;;5014448;28;20505;-77
2023/01/03 00:04:27;;;;;;;;;;;5.10;99.90;;;;;;5017153;28;19909;-77
2023/01/03 00:06:54;;;;;;;;;;;5.60;99.90;;;;;;5019170;28;19906;-80
2023/01/03 00:09:22;;;;;;;;;;;5.20;99.90;;;;;;5021816;28;19983;-77
2023/01/03 00:14:35;;;;;;;;;;;5.80;99.90;;;;;;5018636;28;19920;-79
2023/01/03 00:17:03;;;;;;;;;;;5.10;99.90;;;;;;5022909;28;19922;-78
2023/01/03 00:19:31;;;;;;;;;;;5.10;99.90;;;;;;5025791;28;19917;-79
2023/01/03 00:21:56;;;;;;;;;;;5.00;99.90;;;;;;5024383;28;19910;-77
2023/01/03 00:24:23;;;;;;;;;;;5.00;99.90;;;;;;5017555;28;20327;-77
2023/01/03 00:26:53;;;;;;;;;;;5.00;99.90;;;;;;5019545;28;19924;-78
2023/01/03 00:29:22;;;;;;;;;;;4.90;99.90;;;;;;5017780;28;19924;-76
2023/01/03 00:31:47;;;;;;;;;;;4.90;99.90;;;;;;5015693;28;19973;-76
2023/01/03 00:34:14;;;;;;;;;;;4.80;99.90;;;;;;5022289;28;19913;-78
2023/01/03 00:36:39;;;;;;;;;;;4.90;99.90;;;;;;5013455;28;20028;-77
2023/01/03 00:39:05;;;;;;;;;;;4.80;99.90;;;;;;5009817;28;20431;-76
2023/01/03 00:41:33;;;;;;;;;;;4.80;99.90;;;;;;5011239;28;19981;-77
2023/01/03 00:43:59;;;;;;;;;;;4.80;99.90;;;;;;5015896;28;19905;-78
2023/01/03 00:46:25;;;;;;;;;;;4.80;99.90;;;;;;5002266;28;19916;-77
2023/01/03 00:48:50;;;;;;;;;;;5.60;99.90;;;;;;5035742;28;19940;-77
2023/01/03 00:51:24;;;;;;;;;;;4.90;99.90;;;;;;5038548;28;19913;-77
2023/01/03 00:53:51;;;;;;;;;;;4.80;99.90;;;;;;5038260;28;19909;-78
2023/01/03 00:56:19;;;;;;;;;;;4.80;99.90;;;;;;5031447;28;19909;-79
2023/01/03 00:58:45;;;;;;;;;;;4.70;99.90;;;;;;5011375;28;19971;-78
2023/01/03 01:01:21;;;;;;;;;;;1.60;99.90;;;;;;5037728;28;19905;-77
2023/01/03 01:03:49;;;;;;;;;;;4.90;99.90;;;;;;5039122;28;19927;-76
2023/01/03 01:06:45;;;;;;;;;;;4.70;99.90;;;;;;5033331;28;20016;-79
2023/01/03 01:09:12;;;;;;;;;;;4.70;99.90;;;;;;4992396;28;20515;-78
2023/01/03 01:11:40;;;;;;;;;;;4.70;99.90;;;;;;4981882;28;19906;-76
2023/01/03 01:14:18;;;;;;;;;;;4.70;99.90;;;;;;4998048;28;20098;-78
2023/01/03 01:17:17;;;;;;;;;;;4.70;99.90;;;;;;4982276;28;19922;-79
2023/01/03 01:19:43;;;;;;;;;;;4.70;99.90;;;;;;4994635;28;20668;-78
2023/01/03 01:22:11;;;;;;;;;;;4.70;99.90;;;;;;4978320;28;19958;-78
2023/01/03 01:24:44;;;;;;;;;;;4.70;99.90;;;;;;4971204;28;20148;-79
2023/01/03 01:27:11;;;;;;;;;;;4.70;99.90;;;;;;4973129;28;20005;-78
2023/01/03 01:29:37;;;;;;;;;;;4.70;99.90;;;;;;4990618;28;19913;-80
2023/01/03 01:32:05;;;;;;;;;;;4.70;99.90;;;;;;4993416;28;19921;-80
2023/01/03 01:34:34;;;;;;;;;;;4.60;99.90;;;;;;4998047;28;19925;-79
2023/01/03 01:36:59;;;;;;;;;;;5.80;99.90;;;;;;4996305;28;19910;-81
2023/01/03 01:39:27;;;;;;;;;;;5.40;99.90;;;;;;4996102;28;20060;-78
2023/01/03 01:44:46;;;;;;;;;;;4.50;99.90;;;;;;4996974;28;19972;-77
2023/01/03 01:47:12;;;;;;;;;;;4.50;99.90;;;;;;5036035;28;19995;-78
2023/01/03 01:49:37;;;;;;;;;;;4.50;99.90;;;;;;5041520;28;19912;-78
2023/01/03 01:52:03;;;;;;;;;;;4.50;99.90;;;;;;5039002;28;20000;-78
2023/01/03 01:54:30;;;;;;;;;;;4.60;99.90;;;;;;5037859;28;19968;-78
2023/01/03 01:56:56;;;;;;;;;;;5.10;99.90;;;;;;5021580;28;19909;-77
2023/01/03 01:59:22;;;;;;;;;;;4.50;99.90;;;;;;5035408;28;19922;-77
2023/01/03 02:01:48;;;;;;;;;;;4.50;99.90;;;;;;5037733;28;20163;-78
2023/01/03 02:04:16;;;;;;;;;;;4.50;99.90;;;;;;5043906;28;19909;-78
2023/01/03 02:06:46;;;;;;;;;;;4.60;99.90;;;;;;5042849;28;20065;-77
2023/01/03 02:09:12;;;;;;;;;;;4.50;99.90;;;;;;5045630;28;19909;-76
2023/01/03 02:14:51;;;;;;;;;;;4.50;99.90;;;;;;5041333;28;19939;-81
2023/01/03 02:17:40;;;;;;;;;;;4.50;99.90;;;;;;5043383;28;19913;-78
2023/01/03 02:20:24;;;;;;;;;;;4.20;99.90;;;;;;4994486;28;19996;-77
2023/01/03 02:22:58;;;;;;;;;;;1.10;99.90;;;;;;5002016;28;19905;-78
2023/01/03 02:25:34;;;;;;;;;;;4.30;99.90;;;;;;4985841;28;19914;-78
2023/01/03 02:28:25;;;;;;;;;;;4.30;99.90;;;;;;4984546;28;20182;-76
2023/01/03 02:30:51;;;;;;;;;;;4.30;99.90;;;;;;4974820;28;20784;-77
2023/01/03 02:33:22;;;;;;;;;;;4.30;99.90;;;;;;4974343;28;19954;-79
2023/01/03 02:35:55;;;;;;;;;;;3.90;99.90;;;;;;4974553;28;19934;-77
2023/01/03 02:38:24;;;;;;;;;;;4.20;99.90;;;;;;4979538;28;19945;-79
2023/01/03 02:41:11;;;;;;;;;;;1.10;99.90;;;;;;4979546;28;19917;-77
2023/01/03 02:43:54;;;;;;;;;;;1.60;99.90;;;;;;4972245;28;19938;-79
2023/01/03 02:46:24;;;;;;;;;;;4.20;99.90;;;;;;4982920;28;19914;-78
2023/01/03 02:49:09;;;;;;;;;;;4.10;99.90;;;;;;4977395;28;19906;-78
2023/01/03 02:51:40;;;;;;;;;;;4.10;99.90;;;;;;4974554;28;19925;-78
2023/01/03 02:54:09;;;;;;;;;;;4.00;99.90;;;;;;4974727;28;19914;-77
2023/01/03 02:56:37;;;;;;;;;;;3.90;99.90;;;;;;4973782;28;20265;-77
2023/01/03 02:59:13;;;;;;;;;;;4.80;99.90;;;;;;5020612;28;19913;-78
2023/01/03 03:01:43;;;;;;;;;;;3.90;99.90;;;;;;5024892;28;19909;-77
2023/01/03 03:04:12;;;;;;;;;;;3.90;99.90;;;;;;5035364;28;19916;-78
2023/01/03 03:06:57;;;;;;;;;;;3.90;99.90;;;;;;5036562;28;20097;-78
2023/01/03 03:09:23;;;;;;;;;;;3.90;99.90;;;;;;5035507;28;20532;-77
2023/01/03 03:14:37;;;;;;;;;;;3.80;99.90;;;;;;5036763;28;19924;-76
2023/01/03 03:17:07;;;;;;;;;;;3.90;99.90;;;;;;5036170;28;19944;-77
2023/01/03 03:25:27;;;;;;;;;;;3.90;99.90;;;;;;5040424;28;19916;-77
2023/01/03 03:30:41;;;;;;;;;;;3.90;99.90;;;;;;5040989;28;19955;-77
2023/01/03 03:33:09;;;;;;;;;;;3.60;99.90;;;;;;5036588;28;19912;-76
2023/01/03 03:35:45;;;;;;;;;;;3.80;99.90;;;;;;5039549;28;20422;-78
2023/01/03 03:38:14;;;;;;;;;;;3.80;99.90;;;;;;5021152;28;19921;-77
2023/01/03 03:46:40;;;;;;;;;;;3.70;99.90;;;;;;5041956;28;19916;-79
2023/01/03 03:52:00;;;;;;;;;;;3.60;99.90;;;;;;5030038;28;19987;-77
2023/01/03 03:54:27;;;;;;;;;;;3.70;99.90;;;;;;5031151;28;19952;-78
2023/01/03 03:57:03;;;;;;;;;;;3.80;99.90;;;;;;5027897;28;19912;-81
2023/01/03 03:59:30;;;;;;;;;;;3.70;99.90;;;;;;5028672;28;19924;-78
2023/01/03 04:02:01;;;;;;;;;;;3.60;99.90;;;;;;5032463;28;19912;-81
2023/01/03 04:04:29;;;;;;;;;;;3.70;99.90;;;;;;5032004;28;19905;-78
2023/01/03 04:06:55;;;;;;;;;;;3.70;99.90;;;;;;5035276;28;19916;-78
2023/01/03 04:09:21;;;;;;;;;;;3.70;99.90;;;;;;5040815;28;19905;-77
2023/01/03 04:11:46;;;;;;;;;;;3.40;99.90;;;;;;5037157;28;20607;-78
2023/01/03 04:14:12;;;;;;;;;;;3.60;99.90;;;;;;5040625;28;19989;-78
2023/01/03 04:16:39;;;;;;;;;;;3.60;99.90;;;;;;5036169;28;19921;-79
2023/01/03 04:19:07;;;;;;;;;;;3.60;99.90;;;;;;5022658;28;19913;-77
2023/01/03 04:21:33;;;;;;;;;;;3.60;99.90;;;;;;5021959;28;20114;-77
2023/01/03 04:23:58;;;;;;;;;;;3.60;99.90;;;;;;5038556;28;20475;-76
2023/01/03 04:26:26;;;;;;;;;;;3.60;99.90;;;;;;5039454;28;19909;-77
2023/01/03 04:28:52;;;;;;;;;;;3.60;99.90;;;;;;5042877;28;19960;-76
2023/01/03 04:31:18;;;;;;;;;;;3.70;99.90;;;;;;5022453;28;19944;-77
2023/01/03 04:33:43;;;;;;;;;;;3.70;99.90;;;;;;5021884;28;19984;-77
2023/01/03 04:36:09;;;;;;;;;;;2.30;99.90;;;;;;5038488;28;19917;-81
2023/01/03 04:38:35;;;;;;;;;;;3.70;99.90;;;;;;5039160;28;19917;-76
2023/01/03 04:41:06;;;;;;;;;;;3.70;99.90;;;;;;5040613;28;19968;-76
2023/01/03 04:46:15;;;;;;;;;;;3.70;99.90;;;;;;5038817;28;20637;-77
2023/01/03 04:48:41;;;;;;;;;;;3.70;99.90;;;;;;5034907;28;19905;-77
2023/01/03 04:51:07;;;;;;;;;;;3.70;99.90;;;;;;5041033;28;19905;-77
2023/01/03 04:53:33;;;;;;;;;;;3.70;99.90;;;;;;5039950;28;19951;-77
2023/01/03 04:55:59;;;;;;;;;;;3.40;99.90;;;;;;5016156;28;19913;-77
2023/01/03 04:58:26;;;;;;;;;;;3.40;99.90;;;;;;5038236;28;20540;-77
2023/01/03 05:00:51;;;;;;;;;;;3.40;99.90;;;;;;5037374;28;19944;-78
2023/01/03 05:03:17;;;;;;;;;;;3.40;99.90;;;;;;5034712;28;19992;-77
2023/01/03 05:05:43;;;;;;;;;;;3.40;99.90;;;;;;5037238;28;19913;-78
2023/01/03 05:08:19;;;;;;;;;;;3.30;99.90;;;;;;5037444;28;19936;-77
2023/01/03 05:10:53;;;;;;;;;;;3.30;99.90;;;;;;5038365;28;19912;-77
2023/01/03 05:13:18;;;;;;;;;;;3.20;99.90;;;;;;5018166;28;20680;-77
2023/01/03 05:15:44;;;;;;;;;;;3.20;99.90;;;;;;5038139;28;19970;-78
2023/01/03 05:18:10;;;;;;;;;;;3.10;99.90;;;;;;5036098;28;20330;-80
2023/01/03 05:26:15;;;;;;;;;;;3.10;99.90;;;;;;5042018;28;19912;-78
2023/01/03 05:28:42;;;;;;;;;;;3.20;99.90;;;;;;5041150;28;19909;-78
2023/01/03 05:31:07;;;;;;;;;;;3.20;99.90;;;;;;5043063;28;19910;-79
2023/01/03 05:33:33;;;;;;;;;;;3.10;99.90;;;;;;5040688;28;20482;-78
2023/01/03 05:35:59;;;;;;;;;;;3.10;99.90;;;;;;5040656;28;19917;-77
2023/01/03 05:38:24;;;;;;;;;;;3.10;99.90;;;;;;5041785;28;20491;-80
2023/01/03 05:40:50;;;;;;;;;;;3.10;99.90;;;;;;5039212;28;20009;-76
2023/01/03 05:43:16;;;;;;;;;;;3.10;99.90;;;;;;5036193;28;19913;-78
2023/01/03 05:45:42;;;;;;;;;;;2.90;99.90;;;;;;5031760;28;20386;-77
2023/01/03 05:48:08;;;;;;;;;;;2.90;99.90;;;;;;5034360;28;20548;-80
2023/01/03 05:50:35;;;;;;;;;;;2.80;99.90;;;;;;5034595;28;19980;-76
2023/01/03 05:53:00;;;;;;;;;;;2.80;99.90;;;;;;5033396;28;19937;-77
2023/01/03 05:55:27;;;;;;;;;;;2.50;99.90;;;;;;5036606;28;19941;-76
2023/01/03 05:57:53;;;;;;;;;;;2.30;99.90;;;;;;5038586;28;19988;-76
2023/01/03 06:00:22;;;;;;;;;;;2.30;99.90;;;;;;5037156;28;19958;-81
2023/01/03 06:02:50;;;;;;;;;;;2.20;99.90;;;;;;5038410;28;19905;-77
2023/01/03 06:05:16;;;;;;;;;;;2.20;99.90;;;;;;5011380;28;19913;-76
2023/01/03 06:07:41;;;;;;;;;;;2.10;99.90;;;;;;5029323;28;19988;-77
2023/01/03 06:10:07;;;;;;;;;;;2.20;99.90;;;;;;5032468;28;19905;-75
2023/01/03 06:12:33;;;;;;;;;;;2.20;99.90;;;;;;5032700;28;19916;-77
2023/01/03 06:14:58;;;;;;;;;;;2.20;99.90;;;;;;5030189;28;19957;-76
2023/01/03 06:20:09;;;;;;;;;;;2.20;99.90;;;;;;5031433;28;20611;-76
2023/01/03 06:22:35;;;;;;;;;;;2.10;99.90;;;;;;5034679;28;20045;-77
2023/01/03 06:25:00;;;;;;;;;;;2.10;99.90;;;;;;5033618;28;19916;-80
2023/01/03 06:27:26;;;;;;;;;;;2.10;99.90;;;;;;5018513;28;19905;-77
2023/01/03 06:29:52;;;;;;;;;;;2.10;99.90;;;;;;5034679;28;19941;-77
2023/01/03 06:32:20;;;;;;;;;;;2.10;99.90;;;;;;5033054;28;19966;-76
2023/01/03 06:34:46;;;;;;;;;;;2.10;99.90;;;;;;5033983;28;20004;-76
2023/01/03 06:37:13;;;;;;;;;;;2.10;99.90;;;;;;5032842;28;20008;-76
2023/01/03 06:39:40;;;;;;;;;;;2.10;99.90;;;;;;5031921;28;19920;-76
2023/01/03 06:53:13;;;;;;;;;;;2.00;99.90;;;;;;4996779;28;20006;-78
2023/01/03 06:55:39;;;;;;;;;;;2.00;99.90;;;;;;4996561;28;19910;-75
2023/01/03 06:58:05;;;;;;;;;;;2.00;99.90;;;;;;4998432;28;19913;-79
2023/01/03 07:00:31;;;;;;;;;;;2.00;99.90;;;;;;4997257;28;20549;-76
2023/01/03 07:02:56;;;;;;;;;;;2.00;99.90;;;;;;4995782;28;19910;-76
2023/01/03 07:05:22;;;;;;;;;;;2.10;99.90;;;;;;4993777;28;19945;-77
2023/01/03 07:07:48;;;;;;;;;;;1.70;99.90;;;;;;4993536;28;19906;-77
2023/01/03 07:10:16;;;;;;;;;;;2.10;99.90;;;;;;4978732;28;20474;-75
2023/01/03 07:15:26;;;;;;;;;;;2.00;99.90;;;;;;4992611;28;19917;-77
2023/01/03 07:17:53;;;;;;;;;;;2.00;99.90;;;;;;4991602;28;19994;-77
2023/01/03 07:20:19;;;;;;;;;;;2.00;99.90;;;;;;4993486;28;20643;-77
2023/01/03 07:22:44;;;;;;;;;;;1.80;99.90;;;;;;4992713;28;20025;-76
2023/01/03 07:25:10;;;;;;;;;;;2.00;99.90;;;;;;5009144;28;20008;-77
2023/01/03 07:27:36;;;;;;;;;;;2.00;99.90;;;;;;5017656;28;19945;-76
2023/01/03 07:30:02;;;;;;;;;;;2.00;99.90;;;;;;5018056;28;19907;-76
2023/01/03 07:32:27;;;;;;;;;;;2.10;99.90;;;;;;4999744;28;19909;-78
2023/01/03 07:34:54;;;;;;;;;;;2.10;99.90;;;;;;5019665;28;19948;-77
2023/01/03 07:37:19;;;;;;;;;;;2.10;99.90;;;;;;5021667;28;19972;-77
2023/01/03 07:39:46;;;;;;;;;;;2.20;99.90;;;;;;5000664;28;20546;-77
2023/01/03 07:44:57;;;;;;;;;;;2.90;99.90;;;;;;5014634;28;19972;-80
2023/01/03 07:47:22;;;;;;;;;;;2.70;99.90;;;;;;5019431;28;19909;-77
2023/01/03 07:49:48;;;;;;;;;;;2.40;99.90;;;;;;5023118;28;20002;-80
2023/01/03 07:52:13;;;;;;;;;;;2.40;99.90;;;;;;5019410;28;19912;-77
2023/01/03 07:54:39;;;;;;;;;;;2.50;99.90;;;;;;5017200;28;20577;-76
2023/01/03 07:57:07;;;;;;;;;;;2.50;99.90;;;;;;5018628;28;20547;-75
2023/01/03 07:59:33;;;;;;;;;;;2.50;99.90;;;;;;5014468;28;20008;-76
2023/01/03 08:01:59;;;;;;;;;;;3.70;99.90;;;;;;5018653;28;19914;-75
2023/01/03 08:04:24;;;;;;;;;;;2.60;99.90;;;;;;4990023;28;19909;-77
2023/01/03 08:06:50;;;;;;;;;;;2.50;99.90;;;;;;5008751;28;20273;-79
2023/01/03 08:14:44;;;;;;;;;;;2.90;99.90;;;;;;5008353;28;19944;-78
2023/01/03 08:17:10;;;;;;;;;;;2.90;99.90;;;;;;5016304;28;20658;-76
2023/01/03 08:19:35;;;;;;;;;;;3.00;99.90;;;;;;5031274;28;19940;-77
2023/01/03 08:22:01;;;;;;;;;;;3.10;99.90;;;;;;5011912;28;20186;-77
2023/01/03 08:24:27;;;;;;;;;;;3.20;99.90;;;;;;5021802;28;19932;-75
2023/01/03 08:26:52;;;;;;;;;;;3.20;99.90;;;;;;5029198;28;19916;-78
2023/01/03 08:29:18;;;;;;;;;;;3.30;99.90;;;;;;5023851;28;19909;-77
2023/01/03 08:31:50;;;;;;;;;;;1.50;99.90;;;;;;5024635;28;19935;-76
2023/01/03 08:34:16;;;;;;;;;;;3.40;99.90;;;;;;5029957;28;19940;-76
2023/01/03 08:36:47;;;;;;;;;;;3.50;99.90;;;;;;5035820;28;19909;-79
2023/01/03 08:39:15;;;;;;;;;;;3.50;99.90;;;;;;5033680;28;19913;-78
2023/01/03 08:41:43;;;;;;;;;;;3.60;99.90;;;;;;5061309;28;19920;-76
2023/01/03 08:44:14;;;;;;;;;;;3.70;99.90;;;;;;5038995;28;19913;-77
2023/01/03 08:46:45;;;;;;;;;;;3.70;99.90;;;;;;5051493;28;19905;-77
2023/01/03 08:49:11;;;;;;;;;;;3.70;99.90;;;;;;5047705;28;20273;-80
2023/01/03 08:51:37;;;;;;;;;;;3.80;99.90;;;;;;5045817;28;20590;-79
2023/01/03 08:54:03;;;;;;;;;;;3.90;99.90;;;;;;5046406;28;19909;-80
2023/01/03 08:56:28;;;;;;;;;;;4.10;99.90;;;;;;5030303;28;19921;-78
2023/01/03 08:58:56;;;;;;;;;;;4.10;99.90;;;;;;5051812;28;19917;-79
2023/01/03 09:01:23;;;;;;;;;;;4.10;99.90;;;;;;5051706;28;19916;-78
2023/01/03 09:03:49;;;;;;;;;;;4.20;99.90;;;;;;5053134;28;19943;-79
2023/01/03 09:06:14;;;;;;;;;;;4.10;99.90;;;;;;5053382;28;20612;-77
2023/01/03 09:08:40;;;;;;;;;;;4.20;99.90;;;;;;5051207;28;19909;-79
2023/01/03 09:11:08;;;;;;;;;;;4.40;99.90;;;;;;5050443;28;19984;-78
2023/01/03 09:13:34;;;;;;;;;;;4.40;99.90;;;;;;5051712;28;19917;-79
2023/01/03 09:16:00;;;;;;;;;;;4.50;99.90;;;;;;5053253;28;19916;-80
2023/01/03 09:18:27;;;;;;;;;;;4.60;99.90;;;;;;5026382;28;20008;-78
2023/01/03 09:20:53;;;;;;;;;;;4.60;99.90;;;;;;5052860;28;19905;-81
2023/01/03 09:23:19;;;;;;;;;;;5.00;99.90;;;;;;5050959;28;19990;-78
2023/01/03 09:25:50;;;;;;;;;;;5.20;99.90;;;;;;5054468;28;19977;-78
2023/01/03 09:28:16;;;;;;;;;;;5.50;99.90;;;;;;5058105;28;20594;-76
2023/01/03 09:30:42;;;;;;;;;;;5.50;99.90;;;;;;5042766;28;19909;-76
2023/01/03 09:33:09;;;;;;;;;;;5.70;99.90;;;;;;5036176;28;19941;-76
2023/01/03 09:35:39;;;;;;;;;;;5.90;99.90;;;;;;5057206;28;19904;-77
2023/01/03 09:38:04;;;;;;;;;;;5.90;99.90;;;;;;5037020;28;19923;-78
2023/01/03 09:40:40;;;;;;;;;;;6.10;99.90;;;;;;5053479;28;19912;-77
2023/01/03 09:43:12;;;;;;;;;;;6.30;99.90;;;;;;5052560;28;19921;-76
2023/01/03 09:45:39;;;;;;;;;;;6.50;99.90;;;;;;5045447;28;19909;-78
2023/01/03 09:48:05;;;;;;;;;;;6.40;99.90;;;;;;5049207;28;19911;-76
2023/01/03 09:50:33;;;;;;;;;;;6.50;99.90;;;;;;5049806;28;19909;-76
2023/01/03 10:04:09;;;;;;;;;;;6.60;99.90;;;;;;5050939;28;20625;-79
2023/01/03 10:06:42;;;;;;;;;;;7.40;99.90;;;;;;5052513;28;19922;-76
2023/01/03 10:09:07;;;;;;;;;;;7.60;99.90;;;;;;5051680;28;20037;-76
2023/01/03 10:11:36;;;;;;;;;;;7.60;99.90;;;;;;5049858;28;19940;-79
2023/01/03 10:14:24;;;;;;;;;;;7.80;99.90;;;;;;5048882;28;19909;-79
2023/01/03 10:16:59;;;;;;;;;;;7.90;99.90;;;;;;5065879;28;19912;-80
2023/01/03 10:19:44;;;;;;;;;;;8.00;99.90;;;;;;5102139;28;19924;-79
2023/01/03 10:22:11;;;;;;;;;;;6.00;99.90;;;;;;5073876;28;19990;-78
2023/01/03 10:24:44;;;;;;;;;;;8.30;99.90;;;;;;5067608;28;19943;-76
2023/01/03 10:27:15;;;;;;;;;;;8.40;99.90;;;;;;5037255;28;19947;-76
2023/01/03 10:29:41;;;;;;;;;;;8.50;99.90;;;;;;5044861;28;19909;-76
2023/01/03 10:32:17;;;;;;;;;;;8.60;99.90;;;;;;5056318;28;19905;-78
2023/01/03 10:34:43;;;;;;;;;;;8.80;99.90;;;;;;5035610;28;19915;-78
2023/01/03 10:37:16;;;;;;;;;;;8.90;99.90;;;;;;5057397;28;19972;-80
2023/01/03 10:39:42;;;;;;;;;;;9.00;99.90;;;;;;5059557;28;20535;-79
2023/01/03 10:42:15;;;;;;;;;;;10.40;99.90;;;;;;5058362;28;19905;-80
2023/01/03 10:44:55;;;;;;;;;;;9.20;99.90;;;;;;5058075;28;20474;-80
2023/01/03 10:47:20;;;;;;;;;;;9.40;99.90;;;;;;5035230;28;19968;-81
2023/01/03 10:49:46;;;;;;;;;;;12.60;99.90;;;;;;5069631;28;19916;-78
2023/01/03 10:52:17;;;;;;;;;;;9.50;99.90;;;;;;5061693;28;19916;-81
2023/01/03 10:54:49;;;;;;;;;;;9.60;99.90;;;;;;5044314;28;19927;-83
2023/01/03 10:57:33;;;;;;;;;;;9.80;99.90;;;;;;5068236;28;19996;-79
2023/01/03 10:59:59;;;;;;;;;;;9.70;99.90;;;;;;5062667;28;19913;-78
2023/01/03 11:02:24;;;;;;;;;;;9.80;99.90;;;;;;5050565;28;20019;-78
2023/01/03 11:05:11;;;;;;;;;;;10.00;99.90;;;;;;5046611;28;19916;-76
2023/01/03 11:07:44;;;;;;;;;;;9.90;99.90;;;;;;5052461;28;19916;-78
2023/01/03 11:10:17;;;;;;;;;;;10.10;99.90;;;;;;5065396;28;19909;-77
2023/01/03 11:12:43;;;;;;;;;;;9.80;99.90;;;;;;5057663;28;19977;-78
2023/01/03 11:15:12;;;;;;;;;;;8.50;99.90;;;;;;5066323;28;19908;-78
2023/01/03 11:17:51;;;;;;;;;;;10.50;99.90;;;;;;5064339;28;19952;-77
2023/01/03 11:20:42;;;;;;;;;;;10.70;99.90;;;;;;5059297;28;20000;-78
2023/01/03 11:23:21;;;;;;;;;;;10.70;99.90;;;;;;5064007;28;19908;-78
2023/01/03 11:26:05;;;;;;;;;;;10.80;99.90;;;;;;5060089;28;20636;-78
2023/01/03 11:28:43;;;;;;;;;;;10.90;99.90;;;;;;5054379;28;19959;-79
2023/01/03 11:31:13;;;;;;;;;;;11.00;99.90;;;;;;5048515;28;19999;-79
2023/01/03 11:33:39;;;;;;;;;;;10.90;99.90;;;;;;5056235;28;19909;-77
2023/01/03 11:36:25;;;;;;;;;;;10.90;99.90;;;;;;5059137;28;19912;-78
2023/01/03 11:39:09;;;;;;;;;;;11.00;99.90;;;;;;4998153;28;19976;-83
2023/01/03 11:41:41;;;;;;;;;;;11.20;99.90;;;;;;4997592;28;19897;-78
2023/01/03 11:44:19;;;;;;;;;;;11.50;99.90;;;;;;4977610;28;20689;-81
2023/01/03 11:46:46;;;;;;;;;;;11.70;99.90;;;;;;4988945;28;19905;-77
2023/01/03 11:49:31;;;;;;;;;;;11.90;99.90;;;;;;4980879;28;20001;-79
2023/01/03 11:52:15;;;;;;;;;;;12.10;99.90;;;;;;4980423;28;19909;-83
2023/01/03 11:55:00;;;;;;;;;;;12.20;99.90;;;;;;4980569;28;20065;-79
2023/01/03 11:57:45;;;;;;;;;;;12.30;99.90;;;;;;4978991;28;19912;-79
2023/01/03 12:00:19;;;;;;;;;;;12.40;99.90;;;;;;4979562;28;19920;-79
2023/01/03 12:03:06;;;;;;;;;;;12.50;99.90;;;;;;4977811;28;19917;-87
2023/01/03 12:05:53;;;;;;;;;;;12.60;99.90;;;;;;4977875;28;19992;-80
2023/01/03 12:08:40;;;;;;;;;;;12.80;99.90;;;;;;4961646;28;19905;-77
2023/01/03 12:11:15;;;;;;;;;;;13.00;99.90;;;;;;4962087;28;20396;-82
2023/01/03 12:13:44;;;;;;;;;;;11.70;99.90;;;;;;4982270;28;19981;-78
2023/01/03 12:16:17;;;;;;;;;;;13.20;99.90;;;;;;5001994;28;19943;-79
2023/01/03 12:18:50;;;;;;;;;;;13.30;99.90;;;;;;5047823;28;19928;-84
2023/01/03 12:21:19;;;;;;;;;;;13.40;99.90;;;;;;5047468;28;19909;-83
2023/01/03 12:23:54;;;;;;;;;;;13.50;99.90;;;;;;5043624;28;19905;-87
2023/01/03 12:26:21;;;;;;;;;;;13.50;99.90;;;;;;5043972;28;19916;-82
2023/01/03 12:28:49;;;;;;;;;;;14.50;99.90;;;;;;5032164;28;19936;-82
2023/01/03 12:31:18;;;;;;;;;;;13.70;99.90;;;;;;5047928;28;20000;-77
2023/01/03 12:33:50;;;;;;;;;;;13.90;99.90;;;;;;5029456;28;19954;-81
2023/01/03 12:36:24;;;;;;;;;;;13.90;99.90;;;;;;5043285;28;19909;-76
2023/01/03 12:38:58;;;;;;;;;;;14.10;99.90;;;;;;5022637;28;19925;-80
2023/01/03 12:41:30;;;;;;;;;;;14.20;99.90;;;;;;5040164;28;19908;-76
2023/01/03 12:44:16;;;;;;;;;;;14.60;99.90;;;;;;5021655;28;19939;-77
2023/01/03 12:46:50;;;;;;;;;;;13.50;99.90;;;;;;5039188;28;20058;-82
2023/01/03 12:49:21;;;;;;;;;;;14.00;99.90;;;;;;5041273;28;19916;-84
2023/01/03 12:51:47;;;;;;;;;;;13.80;99.90;;;;;;5039985;28;19943;-85
2023/01/03 12:54:24;;;;;;;;;;;13.90;99.90;;;;;;5040117;28;19909;-78
2023/01/03 12:57:01;;;;;;;;;;;13.90;99.90;;;;;;5023422;28;19909;-77
2023/01/03 12:59:37;;;;;;;;;;;13.90;99.90;;;;;;5023774;28;19975;-86
2023/01/03 13:02:15;;;;;;;;;;;13.80;99.90;;;;;;5042573;28;19916;-79
2023/01/03 13:04:42;;;;;;;;;;;13.80;99.90;;;;;;5023639;28;19966;-81
2023/01/03 13:07:20;;;;;;;;;;;13.70;99.90;;;;;;5040751;28;19904;-82
2023/01/03 13:09:58;;;;;;;;;;;13.60;99.90;;;;;;5041102;28;20000;-83
2023/01/03 13:12:28;;;;;;;;;;;12.70;99.90;;;;;;5041727;28;19904;-83
2023/01/03 13:14:55;;;;;;;;;;;13.50;99.90;;;;;;5041754;28;19956;-79
2023/01/03 13:17:23;;;;;;;;;;;13.50;99.90;;;;;;5041791;28;20429;-79
2023/01/03 13:19:58;;;;;;;;;;;13.50;99.90;;;;;;5040915;28;19924;-88
2023/01/03 13:22:27;;;;;;;;;;;13.40;99.90;;;;;;5040697;28;20075;-84
2023/01/03 13:24:53;;;;;;;;;;;13.40;99.90;;;;;;5040219;28;19977;-77
2023/01/03 13:27:21;;;;;;;;;;;13.40;99.90;;;;;;5021844;28;19911;-79
2023/01/03 13:29:47;;;;;;;;;;;13.30;99.90;;;;;;5039870;28;20127;-84
2023/01/03 13:32:23;;;;;;;;;;;13.30;99.90;;;;;;5040023;28;20003;-82
2023/01/03 13:34:54;;;;;;;;;;;13.30;99.90;;;;;;5021641;28;19916;-85
2023/01/03 13:37:21;;;;;;;;;;;13.20;99.90;;;;;;5022123;28;19913;-85
2023/01/03 13:39:46;;;;;;;;;;;13.10;99.90;;;;;;5039935;28;19924;-83
2023/01/03 13:42:31;;;;;;;;;;;10.80;99.90;;;;;;5039007;28;19909;-90
2023/01/03 13:45:14;;;;;;;;;;;13.00;99.90;;;;;;5039368;28;19912;-78
2023/01/03 13:47:41;;;;;;;;;;;13.00;99.90;;;;;;5030187;28;19959;-79
2023/01/03 13:50:20;;;;;;;;;;;13.00;99.90;;;;;;5039372;28;19970;-90
2023/01/03 13:53:01;;;;;;;;;;;13.00;99.90;;;;;;5045826;28;19908;-85
2023/01/03 13:55:38;;;;;;;;;;;12.90;99.90;;;;;;5046090;28;20329;-78
2023/01/03 13:58:27;;;;;;;;;;;11.60;99.90;;;;;;5044960;28;19917;-81
2023/01/03 14:01:00;;;;;;;;;;;12.40;99.90;;;;;;5060083;28;19939;-81
2023/01/03 14:03:46;;;;;;;;;;;12.80;99.90;;;;;;5045430;28;19908;-80
2023/01/03 14:06:30;;;;;;;;;;;12.80;99.90;;;;;;5051340;28;19916;-82
2023/01/03 14:09:11;;;;;;;;;;;12.80;99.90;;;;;;5044828;28;19975;-81
2023/01/03 14:11:49;;;;;;;;;;;12.90;99.90;;;;;;5044059;28;20557;-87
2023/01/03 14:14:16;;;;;;;;;;;12.90;99.90;;;;;;5043005;28;19913;-86
2023/01/03 14:16:45;;;;;;;;;;;13.00;99.90;;;;;;5045599;28;20073;-82
2023/01/03 14:19:27;;;;;;;;;;;13.00;99.90;;;;;;5062188;28;20664;-82
2023/01/03 14:21:53;;;;;;;;;;;13.00;99.90;;;;;;5044935;28;19916;-82
2023/01/03 14:24:42;;;;;;;;;;;13.10;99.90;;;;;;5063543;28;20049;-83
2023/01/03 14:27:12;;;;;;;;;;;13.10;99.90;;;;;;5055728;28;19920;-80
2023/01/03 14:29:39;;;;;;;;;;;13.00;99.90;;;;;;5062889;28;19923;-84
2023/01/03 14:32:05;;;;;;;;;;;12.60;99.90;;;;;;5064390;28;20052;-80
2023/01/03 14:34:33;;;;;;;;;;;12.90;99.90;;;;;;5062552;28;19995;-79
2023/01/03 14:36:59;;;;;;;;;;;12.70;99.90;;;;;;5061904;28;19909;-84
2023/01/03 14:39:31;;;;;;;;;;;12.60;99.90;;;;;;5044020;28;20122;-82
2023/01/03 14:42:00;;;;;;;;;;;12.50;99.90;;;;;;5061241;28;20116;-82
2023/01/03 14:44:28;;;;;;;;;;;12.30;99.90;;;;;;5061375;28;19927;-84
2023/01/03 14:46:58;;;;;;;;;;;12.10;99.90;;;;;;5062101;28;20293;-81
2023/01/03 14:49:36;;;;;;;;;;;11.90;99.90;;;;;;5062197;28;19958;-83
2023/01/03 14:52:05;;;;;;;;;;;11.70;99.90;;;;;;5064316;28;19912;-82
2023/01/03 14:54:33;;;;;;;;;;;11.40;99.90;;;;;;5066598;28;19908;-78
2023/01/03 14:57:03;;;;;;;;;;;11.20;99.90;;;;;;5071776;28;19905;-79
2023/01/03 14:59:39;;;;;;;;;;;11.10;99.90;;;;;;5083763;28;19970;-77
2023/01/03 15:02:06;;;;;;;;;;;10.60;99.90;;;;;;5087537;28;19962;-78
2023/01/03 15:04:32;;;;;;;;;;;10.70;99.90;;;;;;5086922;28;19908;-79
2023/01/03 15:07:02;;;;;;;;;;;10.60;99.90;;;;;;5086484;28;19915;-79
2023/01/03 15:09:32;;;;;;;;;;;10.50;99.90;;;;;;5085732;28;19904;-77
2023/01/03 15:12:01;;;;;;;;;;;10.30;99.90;;;;;;5083656;28;19932;-78
2023/01/03 15:14:34;;;;;;;;;;;10.10;99.90;;;;;;5072918;28;19934;-76
2023/01/03 15:17:02;;;;;;;;;;;9.80;99.90;;;;;;5054989;28;19924;-75
2023/01/03 15:19:29;;;;;;;;;;;9.30;99.90;;;;;;5072303;28;19939;-76
2023/01/03 15:22:11;;;;;;;;;;;9.60;99.90;;;;;;5071357;28;19960;-76
2023/01/03 15:24:42;;;;;;;;;;;8.40;99.90;;;;;;5072660;28;20687;-76
2023/01/03 15:27:27;;;;;;;;;;;9.30;99.90;;;;;;5072260;28;19914;-76
2023/01/03 15:29:53;;;;;;;;;;;9.20;99.90;;;;;;5073668;28;19904;-76
2023/01/03 15:32:19;;;;;;;;;;;9.00;99.90;;;;;;5062086;28;19911;-76
2023/01/03 15:34:44;;;;;;;;;;;8.90;99.90;;;;;;5086717;28;20002;-77
2023/01/03 15:37:11;;;;;;;;;;;8.80;99.90;;;;;;5069976;28;19908;-76
2023/01/03 15:39:41;;;;;;;;;;;8.60;99.90;;;;;;5075817;28;19927;-78
2023/01/03 15:45:16;;;;;;;;;;;8.40;99.90;;;;;;5085131;28;19974;-79
2023/01/03 15:47:42;;;;;;;;;;;8.30;99.90;;;;;;5085692;28;19904;-77
2023/01/03 15:50:17;;;;;;;;;;;8.40;99.90;;;;;;5087976;28;20384;-77
2023/01/03 15:52:51;;;;;;;;;;;8.30;99.90;;;;;;5079847;28;19904;-76
2023/01/03 15:55:16;;;;;;;;;;;8.30;99.90;;;;;;5090310;28;19919;-77
2023/01/03 15:57:49;;;;;;;;;;;8.10;99.90;;;;;;5087660;28;19892;-79
2023/01/03 16:00:18;;;;;;;;;;;7.50;99.90;;;;;;5090635;28;19909;-76